sensor_id;sensor_type;location;lat;lon;timestamp;P1;durP1;ratioP1;P2;durP2;ratioP2
25153;SDS011;47555;51.038;6.280;2023-07-30T00:01:51;5.38;;;2.50;;
25153;SDS011;47555;51.038;6.280;2023-07-30T00:04:17;3.17;;;2.15;;
25153;SDS011;47555;51.038;6.280;2023-07-30T00:06:43;4.72;;;2.40;;
25153;SDS011;47555;51.038;6.280;2023-07-30T00:09:09;3.58;;;2.25;;
25153;SDS011;47555;51.038;6.280;2023-07-30T00:11:35;5.40;;;2.47;;
25153;SDS011;47555;51.038;6.280;2023-07-30T00:14:01;4.85;;;2.25;;
25153;SDS011;47555;51.038;6.280;2023-07-30T00:16:27;2.80;;;2.10;;
25153;SDS011;47555;51.038;6.280;2023-07-30T00:18:52;3.20;;;2.40;;
25153;SDS011;47555;51.038;6.280;2023-07-30T00:21:18;4.50;;;2.05;;
25153;SDS011;47555;51.038;6.280;2023-07-30T00:23:44;6.78;;;2.40;;
25153;SDS011;47555;51.038;6.280;2023-07-30T00:26:11;4.65;;;1.90;;
25153;SDS011;47555;51.038;6.280;2023-07-30T00:28:37;4.28;;;2.30;;
25153;SDS011;47555;51.038;6.280;2023-07-30T00:31:03;3.75;;;2.13;;
25153;SDS011;47555;51.038;6.280;2023-07-30T00:33:29;5.43;;;2.30;;
25153;SDS011;47555;51.038;6.280;2023-07-30T00:35:55;5.03;;;2.25;;
25153;SDS011;47555;51.038;6.280;2023-07-30T00:38:21;3.58;;;2.22;;
25153;SDS011;47555;51.038;6.280;2023-07-30T00:40:47;5.75;;;2.40;;
25153;SDS011;47555;51.038;6.280;2023-07-30T00:43:12;3.60;;;2.17;;
25153;SDS011;47555;51.038;6.280;2023-07-30T00:45:40;3.25;;;2.35;;
25153;SDS011;47555;51.038;6.280;2023-07-30T00:48:06;4.45;;;2.40;;
25153;SDS011;47555;51.038;6.280;2023-07-30T00:50:32;4.28;;;2.33;;
25153;SDS011;47555;51.038;6.280;2023-07-30T00:52:58;5.78;;;2.75;;
25153;SDS011;47555;51.038;6.280;2023-07-30T00:55:24;6.53;;;2.90;;
25153;SDS011;47555;51.038;6.280;2023-07-30T00:57:51;2.92;;;2.20;;
25153;SDS011;47555;51.038;6.280;2023-07-30T01:00:17;3.83;;;2.58;;
25153;SDS011;47555;51.038;6.280;2023-07-30T01:02:43;3.80;;;2.40;;
25153;SDS011;47555;51.038;6.280;2023-07-30T01:05:09;4.20;;;2.72;;
25153;SDS011;47555;51.038;6.280;2023-07-30T01:07:35;6.50;;;2.67;;
25153;SDS011;47555;51.038;6.280;2023-07-30T01:10:02;6.93;;;2.95;;
25153;SDS011;47555;51.038;6.280;2023-07-30T01:12:29;4.43;;;2.25;;
25153;SDS011;47555;51.038;6.280;2023-07-30T01:14:56;5.00;;;2.63;;
25153;SDS011;47555;51.038;6.280;2023-07-30T01:17:22;4.63;;;2.67;;
25153;SDS011;47555;51.038;6.280;2023-07-30T01:19:48;7.82;;;2.70;;
25153;SDS011;47555;51.038;6.280;2023-07-30T01:22:15;5.40;;;2.60;;
25153;SDS011;47555;51.038;6.280;2023-07-30T01:24:41;6.55;;;2.83;;
25153;SDS011;47555;51.038;6.280;2023-07-30T01:27:08;5.38;;;2.90;;
25153;SDS011;47555;51.038;6.280;2023-07-30T01:29:41;5.93;;;2.92;;
25153;SDS011;47555;51.038;6.280;2023-07-30T01:32:08;4.07;;;2.38;;
25153;SDS011;47555;51.038;6.280;2023-07-30T01:34:36;8.35;;;3.92;;
25153;SDS011;47555;51.038;6.280;2023-07-30T01:37:03;6.43;;;2.53;;
25153;SDS011;47555;51.038;6.280;2023-07-30T01:39:30;6.40;;;2.70;;
25153;SDS011;47555;51.038;6.280;2023-07-30T01:41:56;7.70;;;2.60;;
25153;SDS011;47555;51.038;6.280;2023-07-30T01:44:22;5.63;;;3.33;;
25153;SDS011;47555;51.038;6.280;2023-07-30T01:46:48;5.72;;;2.60;;
25153;SDS011;47555;51.038;6.280;2023-07-30T01:49:14;5.00;;;2.75;;
25153;SDS011;47555;51.038;6.280;2023-07-30T01:51:40;5.38;;;2.80;;
25153;SDS011;47555;51.038;6.280;2023-07-30T01:54:06;5.72;;;2.65;;
25153;SDS011;47555;51.038;6.280;2023-07-30T01:56:32;7.13;;;2.90;;
25153;SDS011;47555;51.038;6.280;2023-07-30T01:58:58;7.03;;;2.83;;
25153;SDS011;47555;51.038;6.280;2023-07-30T02:01:26;5.07;;;3.25;;
25153;SDS011;47555;51.038;6.280;2023-07-30T02:03:52;7.63;;;2.80;;
25153;SDS011;47555;51.038;6.280;2023-07-30T02:06:18;8.02;;;2.80;;
25153;SDS011;47555;51.038;6.280;2023-07-30T02:08:43;7.18;;;2.95;;
25153;SDS011;47555;51.038;6.280;2023-07-30T02:11:09;6.55;;;2.67;;
25153;SDS011;47555;51.038;6.280;2023-07-30T02:13:35;7.53;;;3.17;;
25153;SDS011;47555;51.038;6.280;2023-07-30T02:16:01;7.57;;;3.25;;
25153;SDS011;47555;51.038;6.280;2023-07-30T02:18:27;6.57;;;3.00;;
25153;SDS011;47555;51.038;6.280;2023-07-30T02:20:53;4.70;;;2.85;;
25153;SDS011;47555;51.038;6.280;2023-07-30T02:23:20;4.75;;;2.70;;
25153;SDS011;47555;51.038;6.280;2023-07-30T02:25:46;7.60;;;3.00;;
25153;SDS011;47555;51.038;6.280;2023-07-30T02:28:12;4.88;;;2.90;;
25153;SDS011;47555;51.038;6.280;2023-07-30T02:30:38;5.07;;;3.05;;
25153;SDS011;47555;51.038;6.280;2023-07-30T02:33:04;7.35;;;2.70;;
25153;SDS011;47555;51.038;6.280;2023-07-30T02:35:30;6.03;;;2.90;;
25153;SDS011;47555;51.038;6.280;2023-07-30T02:37:56;9.43;;;2.97;;
25153;SDS011;47555;51.038;6.280;2023-07-30T02:40:22;3.97;;;2.35;;
25153;SDS011;47555;51.038;6.280;2023-07-30T02:42:48;8.73;;;3.25;;
25153;SDS011;47555;51.038;6.280;2023-07-30T02:45:14;7.30;;;2.65;;
25153;SDS011;47555;51.038;6.280;2023-07-30T02:47:40;5.45;;;2.45;;
25153;SDS011;47555;51.038;6.280;2023-07-30T02:50:06;6.45;;;2.38;;
25153;SDS011;47555;51.038;6.280;2023-07-30T02:52:32;6.40;;;2.60;;
25153;SDS011;47555;51.038;6.280;2023-07-30T02:54:58;5.15;;;2.03;;
25153;SDS011;47555;51.038;6.280;2023-07-30T02:57:24;6.65;;;2.78;;
25153;SDS011;47555;51.038;6.280;2023-07-30T02:59:49;7.63;;;2.65;;
25153;SDS011;47555;51.038;6.280;2023-07-30T03:02:15;7.43;;;2.90;;
25153;SDS011;47555;51.038;6.280;2023-07-30T03:04:41;6.70;;;2.17;;
25153;SDS011;47555;51.038;6.280;2023-07-30T03:07:08;8.48;;;2.58;;
25153;SDS011;47555;51.038;6.280;2023-07-30T03:09:34;6.05;;;2.78;;
25153;SDS011;47555;51.038;6.280;2023-07-30T03:12:01;5.60;;;2.00;;
25153;SDS011;47555;51.038;6.280;2023-07-30T03:14:27;4.88;;;2.17;;
25153;SDS011;47555;51.038;6.280;2023-07-30T03:16:55;4.53;;;1.83;;
25153;SDS011;47555;51.038;6.280;2023-07-30T03:19:21;5.75;;;1.90;;
25153;SDS011;47555;51.038;6.280;2023-07-30T03:21:47;7.10;;;1.90;;
25153;SDS011;47555;51.038;6.280;2023-07-30T03:24:13;3.13;;;1.52;;
25153;SDS011;47555;51.038;6.280;2023-07-30T03:26:39;2.58;;;1.58;;
25153;SDS011;47555;51.038;6.280;2023-07-30T03:29:05;5.38;;;1.83;;
25153;SDS011;47555;51.038;6.280;2023-07-30T03:31:31;2.83;;;1.73;;
25153;SDS011;47555;51.038;6.280;2023-07-30T03:33:57;5.20;;;1.63;;
25153;SDS011;47555;51.038;6.280;2023-07-30T03:36:23;5.35;;;2.42;;
25153;SDS011;47555;51.038;6.280;2023-07-30T03:38:49;2.95;;;1.58;;
25153;SDS011;47555;51.038;6.280;2023-07-30T03:41:15;3.72;;;1.58;;
25153;SDS011;47555;51.038;6.280;2023-07-30T03:43:41;4.10;;;1.70;;
25153;SDS011;47555;51.038;6.280;2023-07-30T03:46:09;5.85;;;1.90;;
25153;SDS011;47555;51.038;6.280;2023-07-30T03:48:35;4.97;;;1.75;;
25153;SDS011;47555;51.038;6.280;2023-07-30T03:51:01;4.25;;;1.55;;
25153;SDS011;47555;51.038;6.280;2023-07-30T03:53:27;4.15;;;1.70;;
25153;SDS011;47555;51.038;6.280;2023-07-30T03:55:53;4.45;;;2.50;;
25153;SDS011;47555;51.038;6.280;2023-07-30T03:58:19;5.90;;;1.55;;
25153;SDS011;47555;51.038;6.280;2023-07-30T04:00:45;3.50;;;2.85;;
25153;SDS011;47555;51.038;6.280;2023-07-30T04:03:11;5.93;;;2.00;;
25153;SDS011;47555;51.038;6.280;2023-07-30T04:05:37;5.93;;;1.92;;
25153;SDS011;47555;51.038;6.280;2023-07-30T04:08:03;5.78;;;2.53;;
25153;SDS011;47555;51.038;6.280;2023-07-30T04:10:30;4.07;;;1.55;;
25153;SDS011;47555;51.038;6.280;2023-07-30T04:12:57;5.10;;;1.90;;
25153;SDS011;47555;51.038;6.280;2023-07-30T04:15:23;4.80;;;1.80;;
25153;SDS011;47555;51.038;6.280;2023-07-30T04:17:49;5.53;;;1.55;;
25153;SDS011;47555;51.038;6.280;2023-07-30T04:20:15;5.43;;;1.88;;
25153;SDS011;47555;51.038;6.280;2023-07-30T04:22:42;7.40;;;2.83;;
25153;SDS011;47555;51.038;6.280;2023-07-30T04:25:08;10.02;;;1.80;;
25153;SDS011;47555;51.038;6.280;2023-07-30T04:27:35;3.85;;;1.60;;
25153;SDS011;47555;51.038;6.280;2023-07-30T04:30:01;2.53;;;1.90;;
25153;SDS011;47555;51.038;6.280;2023-07-30T04:32:27;4.53;;;1.80;;
25153;SDS011;47555;51.038;6.280;2023-07-30T04:34:53;2.22;;;1.50;;
25153;SDS011;47555;51.038;6.280;2023-07-30T04:37:19;4.10;;;1.67;;
25153;SDS011;47555;51.038;6.280;2023-07-30T04:39:45;3.05;;;1.40;;
25153;SDS011;47555;51.038;6.280;2023-07-30T04:42:11;5.47;;;1.63;;
25153;SDS011;47555;51.038;6.280;2023-07-30T04:44:38;4.88;;;1.50;;
25153;SDS011;47555;51.038;6.280;2023-07-30T04:47:04;4.82;;;1.60;;
25153;SDS011;47555;51.038;6.280;2023-07-30T04:49:30;4.95;;;1.92;;
25153;SDS011;47555;51.038;6.280;2023-07-30T04:51:56;4.85;;;1.73;;
25153;SDS011;47555;51.038;6.280;2023-07-30T04:54:22;5.15;;;1.60;;
25153;SDS011;47555;51.038;6.280;2023-07-30T04:56:48;4.00;;;1.40;;
25153;SDS011;47555;51.038;6.280;2023-07-30T04:59:14;5.05;;;1.73;;
25153;SDS011;47555;51.038;6.280;2023-07-30T05:01:40;5.05;;;1.55;;
25153;SDS011;47555;51.038;6.280;2023-07-30T05:04:06;3.78;;;1.40;;
25153;SDS011;47555;51.038;6.280;2023-07-30T05:06:32;2.35;;;1.33;;
25153;SDS011;47555;51.038;6.280;2023-07-30T05:08:58;5.13;;;1.77;;
25153;SDS011;47555;51.038;6.280;2023-07-30T05:11:24;3.80;;;1.58;;
25153;SDS011;47555;51.038;6.280;2023-07-30T05:13:50;3.80;;;1.52;;
25153;SDS011;47555;51.038;6.280;2023-07-30T05:16:19;5.47;;;1.60;;
25153;SDS011;47555;51.038;6.280;2023-07-30T05:18:45;4.93;;;1.70;;
25153;SDS011;47555;51.038;6.280;2023-07-30T05:21:11;3.58;;;1.33;;
25153;SDS011;47555;51.038;6.280;2023-07-30T05:23:37;3.28;;;1.63;;
25153;SDS011;47555;51.038;6.280;2023-07-30T05:26:03;2.97;;;1.45;;
25153;SDS011;47555;51.038;6.280;2023-07-30T05:28:29;4.18;;;1.90;;
25153;SDS011;47555;51.038;6.280;2023-07-30T05:30:55;6.20;;;1.67;;
25153;SDS011;47555;51.038;6.280;2023-07-30T05:33:21;4.38;;;1.90;;
25153;SDS011;47555;51.038;6.280;2023-07-30T05:35:47;3.95;;;1.70;;
25153;SDS011;47555;51.038;6.280;2023-07-30T05:38:13;4.00;;;1.40;;
25153;SDS011;47555;51.038;6.280;2023-07-30T05:40:39;5.30;;;1.73;;
25153;SDS011;47555;51.038;6.280;2023-07-30T05:43:05;2.22;;;1.42;;
25153;SDS011;47555;51.038;6.280;2023-07-30T05:45:31;3.25;;;1.85;;
25153;SDS011;47555;51.038;6.280;2023-07-30T05:47:57;6.68;;;2.00;;
25153;SDS011;47555;51.038;6.280;2023-07-30T05:50:23;5.78;;;1.70;;
25153;SDS011;47555;51.038;6.280;2023-07-30T05:52:49;5.35;;;2.20;;
25153;SDS011;47555;51.038;6.280;2023-07-30T05:55:14;4.53;;;1.98;;
25153;SDS011;47555;51.038;6.280;2023-07-30T05:57:40;3.65;;;1.65;;
25153;SDS011;47555;51.038;6.280;2023-07-30T06:00:07;5.53;;;2.00;;
25153;SDS011;47555;51.038;6.280;2023-07-30T06:02:33;4.95;;;2.20;;
25153;SDS011;47555;51.038;6.280;2023-07-30T06:04:59;5.60;;;2.92;;
25153;SDS011;47555;51.038;6.280;2023-07-30T06:07:25;4.93;;;2.20;;
25153;SDS011;47555;51.038;6.280;2023-07-30T06:09:50;6.82;;;2.00;;
25153;SDS011;47555;51.038;6.280;2023-07-30T06:12:16;5.03;;;1.88;;
25153;SDS011;47555;51.038;6.280;2023-07-30T06:14:42;9.93;;;2.40;;
25153;SDS011;47555;51.038;6.280;2023-07-30T06:17:08;7.65;;;3.75;;
25153;SDS011;47555;51.038;6.280;2023-07-30T06:19:34;3.97;;;2.10;;
25153;SDS011;47555;51.038;6.280;2023-07-30T06:22:00;4.63;;;1.90;;
25153;SDS011;47555;51.038;6.280;2023-07-30T06:24:26;3.70;;;2.03;;
25153;SDS011;47555;51.038;6.280;2023-07-30T06:26:52;6.90;;;1.90;;
25153;SDS011;47555;51.038;6.280;2023-07-30T06:29:18;4.80;;;2.17;;
25153;SDS011;47555;51.038;6.280;2023-07-30T06:31:44;3.83;;;2.13;;
25153;SDS011;47555;51.038;6.280;2023-07-30T06:34:10;4.35;;;2.20;;
25153;SDS011;47555;51.038;6.280;2023-07-30T06:36:36;8.30;;;2.30;;
25153;SDS011;47555;51.038;6.280;2023-07-30T06:39:03;2.90;;;2.13;;
25153;SDS011;47555;51.038;6.280;2023-07-30T06:41:29;6.60;;;2.35;;
25153;SDS011;47555;51.038;6.280;2023-07-30T06:43:55;5.22;;;2.15;;
25153;SDS011;47555;51.038;6.280;2023-07-30T06:46:21;6.57;;;2.30;;
25153;SDS011;47555;51.038;6.280;2023-07-30T06:48:47;5.85;;;2.40;;
25153;SDS011;47555;51.038;6.280;2023-07-30T06:51:18;9.68;;;3.28;;
25153;SDS011;47555;51.038;6.280;2023-07-30T06:53:44;8.02;;;2.63;;
25153;SDS011;47555;51.038;6.280;2023-07-30T06:56:10;5.38;;;2.60;;
25153;SDS011;47555;51.038;6.280;2023-07-30T06:58:36;6.63;;;2.70;;
25153;SDS011;47555;51.038;6.280;2023-07-30T07:01:02;9.35;;;3.40;;
25153;SDS011;47555;51.038;6.280;2023-07-30T07:03:28;6.28;;;2.30;;
25153;SDS011;47555;51.038;6.280;2023-07-30T07:05:54;6.00;;;2.35;;
25153;SDS011;47555;51.038;6.280;2023-07-30T07:08:21;8.10;;;2.65;;
25153;SDS011;47555;51.038;6.280;2023-07-30T07:10:47;6.15;;;2.45;;
25153;SDS011;47555;51.038;6.280;2023-07-30T07:13:13;7.82;;;2.63;;
25153;SDS011;47555;51.038;6.280;2023-07-30T07:15:40;7.60;;;2.75;;
25153;SDS011;47555;51.038;6.280;2023-07-30T07:18:06;10.18;;;2.67;;
25153;SDS011;47555;51.038;6.280;2023-07-30T07:20:32;8.43;;;2.45;;
25153;SDS011;47555;51.038;6.280;2023-07-30T07:22:58;6.10;;;3.60;;
25153;SDS011;47555;51.038;6.280;2023-07-30T07:25:24;6.15;;;2.22;;
25153;SDS011;47555;51.038;6.280;2023-07-30T07:27:53;5.70;;;2.80;;
25153;SDS011;47555;51.038;6.280;2023-07-30T07:30:19;5.57;;;3.35;;
25153;SDS011;47555;51.038;6.280;2023-07-30T07:32:45;9.93;;;3.85;;
25153;SDS011;47555;51.038;6.280;2023-07-30T07:35:15;8.45;;;2.85;;
25153;SDS011;47555;51.038;6.280;2023-07-30T07:37:41;9.45;;;2.88;;
25153;SDS011;47555;51.038;6.280;2023-07-30T07:40:07;11.77;;;3.42;;
25153;SDS011;47555;51.038;6.280;2023-07-30T07:42:34;9.32;;;3.08;;
25153;SDS011;47555;51.038;6.280;2023-07-30T07:45:00;11.45;;;2.70;;
25153;SDS011;47555;51.038;6.280;2023-07-30T07:47:26;5.82;;;2.60;;
25153;SDS011;47555;51.038;6.280;2023-07-30T07:49:52;10.50;;;3.60;;
25153;SDS011;47555;51.038;6.280;2023-07-30T07:52:19;11.25;;;3.45;;
25153;SDS011;47555;51.038;6.280;2023-07-30T07:54:45;4.90;;;2.70;;
25153;SDS011;47555;51.038;6.280;2023-07-30T07:57:12;9.38;;;3.70;;
25153;SDS011;47555;51.038;6.280;2023-07-30T07:59:38;8.15;;;3.03;;
25153;SDS011;47555;51.038;6.280;2023-07-30T08:02:04;7.05;;;2.70;;
25153;SDS011;47555;51.038;6.280;2023-07-30T08:04:30;9.57;;;3.65;;
25153;SDS011;47555;51.038;6.280;2023-07-30T08:06:56;8.95;;;2.83;;
25153;SDS011;47555;51.038;6.280;2023-07-30T08:09:25;5.95;;;3.30;;
25153;SDS011;47555;51.038;6.280;2023-07-30T08:11:50;8.18;;;3.05;;
25153;SDS011;47555;51.038;6.280;2023-07-30T08:14:16;9.93;;;3.20;;
25153;SDS011;47555;51.038;6.280;2023-07-30T08:16:42;6.38;;;2.80;;
25153;SDS011;47555;51.038;6.280;2023-07-30T08:19:08;9.43;;;3.15;;
25153;SDS011;47555;51.038;6.280;2023-07-30T08:21:37;12.00;;;3.42;;
25153;SDS011;47555;51.038;6.280;2023-07-30T08:24:06;7.82;;;3.38;;
25153;SDS011;47555;51.038;6.280;2023-07-30T08:26:32;5.97;;;2.75;;
25153;SDS011;47555;51.038;6.280;2023-07-30T08:28:58;9.50;;;3.50;;
25153;SDS011;47555;51.038;6.280;2023-07-30T08:31:24;7.47;;;2.83;;
25153;SDS011;47555;51.038;6.280;2023-07-30T08:33:50;8.15;;;3.03;;
25153;SDS011;47555;51.038;6.280;2023-07-30T08:36:16;10.70;;;2.80;;
25153;SDS011;47555;51.038;6.280;2023-07-30T08:38:42;6.30;;;2.22;;
25153;SDS011;47555;51.038;6.280;2023-07-30T08:41:08;8.48;;;3.22;;
25153;SDS011;47555;51.038;6.280;2023-07-30T08:43:34;5.70;;;2.20;;
25153;SDS011;47555;51.038;6.280;2023-07-30T08:46:01;10.70;;;3.47;;
25153;SDS011;47555;51.038;6.280;2023-07-30T08:48:27;8.52;;;2.75;;
25153;SDS011;47555;51.038;6.280;2023-07-30T08:50:55;8.45;;;2.60;;
25153;SDS011;47555;51.038;6.280;2023-07-30T08:53:22;9.15;;;2.63;;
25153;SDS011;47555;51.038;6.280;2023-07-30T08:55:53;10.77;;;3.17;;
25153;SDS011;47555;51.038;6.280;2023-07-30T08:58:20;13.63;;;2.72;;
25153;SDS011;47555;51.038;6.280;2023-07-30T09:00:46;10.68;;;2.75;;
25153;SDS011;47555;51.038;6.280;2023-07-30T09:03:14;9.00;;;2.63;;
25153;SDS011;47555;51.038;6.280;2023-07-30T09:05:40;6.70;;;2.47;;
25153;SDS011;47555;51.038;6.280;2023-07-30T09:08:06;8.07;;;2.55;;
25153;SDS011;47555;51.038;6.280;2023-07-30T09:10:33;6.50;;;2.22;;
25153;SDS011;47555;51.038;6.280;2023-07-30T09:13:01;6.55;;;2.60;;
25153;SDS011;47555;51.038;6.280;2023-07-30T09:15:31;7.90;;;3.05;;
25153;SDS011;47555;51.038;6.280;2023-07-30T09:17:57;9.73;;;2.95;;
25153;SDS011;47555;51.038;6.280;2023-07-30T09:20:23;6.68;;;2.20;;
25153;SDS011;47555;51.038;6.280;2023-07-30T09:22:49;7.25;;;2.47;;
25153;SDS011;47555;51.038;6.280;2023-07-30T09:25:17;12.82;;;2.60;;
25153;SDS011;47555;51.038;6.280;2023-07-30T09:27:47;9.77;;;2.95;;
25153;SDS011;47555;51.038;6.280;2023-07-30T09:30:14;6.95;;;2.42;;
25153;SDS011;47555;51.038;6.280;2023-07-30T09:32:40;11.20;;;2.53;;
25153;SDS011;47555;51.038;6.280;2023-07-30T09:35:10;8.93;;;2.20;;
25153;SDS011;47555;51.038;6.280;2023-07-30T09:40:04;8.65;;;2.28;;
25153;SDS011;47555;51.038;6.280;2023-07-30T09:42:30;4.40;;;1.85;;
25153;SDS011;47555;51.038;6.280;2023-07-30T09:44:58;7.60;;;1.90;;
25153;SDS011;47555;51.038;6.280;2023-07-30T09:47:31;5.20;;;1.70;;
25153;SDS011;47555;51.038;6.280;2023-07-30T09:49:59;7.60;;;1.90;;
25153;SDS011;47555;51.038;6.280;2023-07-30T09:52:25;3.97;;;1.70;;
25153;SDS011;47555;51.038;6.280;2023-07-30T09:54:51;7.05;;;1.65;;
25153;SDS011;47555;51.038;6.280;2023-07-30T09:57:17;9.13;;;1.95;;
25153;SDS011;47555;51.038;6.280;2023-07-30T09:59:44;6.15;;;2.13;;
25153;SDS011;47555;51.038;6.280;2023-07-30T10:02:11;10.38;;;1.90;;
25153;SDS011;47555;51.038;6.280;2023-07-30T10:04:41;7.00;;;1.42;;
25153;SDS011;47555;51.038;6.280;2023-07-30T10:07:10;6.15;;;1.70;;
25153;SDS011;47555;51.038;6.280;2023-07-30T10:09:41;5.80;;;1.55;;
25153;SDS011;47555;51.038;6.280;2023-07-30T10:12:15;4.05;;;1.40;;
25153;SDS011;47555;51.038;6.280;2023-07-30T10:14:42;6.32;;;1.95;;
25153;SDS011;47555;51.038;6.280;2023-07-30T10:17:09;9.70;;;1.73;;
25153;SDS011;47555;51.038;6.280;2023-07-30T10:19:38;5.53;;;1.30;;
25153;SDS011;47555;51.038;6.280;2023-07-30T10:24:37;6.03;;;1.40;;
25153;SDS011;47555;51.038;6.280;2023-07-30T10:27:08;4.72;;;1.33;;
25153;SDS011;47555;51.038;6.280;2023-07-30T10:29:39;8.52;;;1.75;;
25153;SDS011;47555;51.038;6.280;2023-07-30T10:32:08;5.77;;;1.60;;
25153;SDS011;47555;51.038;6.280;2023-07-30T10:34:44;6.25;;;1.30;;
25153;SDS011;47555;51.038;6.280;2023-07-30T10:37:10;3.80;;;1.30;;
25153;SDS011;47555;51.038;6.280;2023-07-30T10:39:36;4.13;;;1.55;;
25153;SDS011;47555;51.038;6.280;2023-07-30T10:42:02;6.13;;;1.40;;
25153;SDS011;47555;51.038;6.280;2023-07-30T10:44:30;6.10;;;2.08;;
25153;SDS011;47555;51.038;6.280;2023-07-30T10:46:57;3.95;;;1.30;;
25153;SDS011;47555;51.038;6.280;2023-07-30T10:49:23;3.75;;;1.38;;
25153;SDS011;47555;51.038;6.280;2023-07-30T10:51:53;6.80;;;1.90;;
25153;SDS011;47555;51.038;6.280;2023-07-30T10:54:19;2.90;;;1.63;;
25153;SDS011;47555;51.038;6.280;2023-07-30T10:56:45;5.97;;;1.90;;
25153;SDS011;47555;51.038;6.280;2023-07-30T10:59:12;6.43;;;1.38;;
25153;SDS011;47555;51.038;6.280;2023-07-30T11:01:38;2.25;;;1.40;;
25153;SDS011;47555;51.038;6.280;2023-07-30T11:04:05;2.50;;;1.30;;
25153;SDS011;47555;51.038;6.280;2023-07-30T11:06:31;5.68;;;1.60;;
25153;SDS011;47555;51.038;6.280;2023-07-30T11:08:57;5.38;;;2.05;;
25153;SDS011;47555;51.038;6.280;2023-07-30T11:11:23;4.03;;;1.30;;
25153;SDS011;47555;51.038;6.280;2023-07-30T11:13:50;5.15;;;1.83;;
25153;SDS011;47555;51.038;6.280;2023-07-30T11:16:19;5.25;;;1.50;;
25153;SDS011;47555;51.038;6.280;2023-07-30T11:18:45;5.22;;;1.58;;
25153;SDS011;47555;51.038;6.280;2023-07-30T11:21:15;7.88;;;1.83;;
25153;SDS011;47555;51.038;6.280;2023-07-30T11:23:45;5.05;;;1.55;;
25153;SDS011;47555;51.038;6.280;2023-07-30T11:26:15;8.02;;;1.55;;
25153;SDS011;47555;51.038;6.280;2023-07-30T11:28:42;6.85;;;1.48;;
25153;SDS011;47555;51.038;6.280;2023-07-30T11:31:15;4.40;;;1.75;;
25153;SDS011;47555;51.038;6.280;2023-07-30T11:33:43;5.95;;;1.80;;
25153;SDS011;47555;51.038;6.280;2023-07-30T11:36:10;4.30;;;1.48;;
25153;SDS011;47555;51.038;6.280;2023-07-30T11:38:36;4.90;;;1.67;;
25153;SDS011;47555;51.038;6.280;2023-07-30T11:41:03;5.72;;;1.95;;
25153;SDS011;47555;51.038;6.280;2023-07-30T11:43:30;5.38;;;1.73;;
25153;SDS011;47555;51.038;6.280;2023-07-30T11:48:52;6.30;;;1.38;;
25153;SDS011;47555;51.038;6.280;2023-07-30T11:51:19;6.85;;;1.73;;
25153;SDS011;47555;51.038;6.280;2023-07-30T11:53:47;5.22;;;1.70;;
25153;SDS011;47555;51.038;6.280;2023-07-30T11:56:15;5.50;;;2.35;;
25153;SDS011;47555;51.038;6.280;2023-07-30T11:58:41;6.15;;;1.50;;
25153;SDS011;47555;51.038;6.280;2023-07-30T12:01:07;4.22;;;1.45;;
25153;SDS011;47555;51.038;6.280;2023-07-30T12:03:33;3.38;;;1.33;;
25153;SDS011;47555;51.038;6.280;2023-07-30T12:06:04;5.25;;;1.50;;
25153;SDS011;47555;51.038;6.280;2023-07-30T12:08:31;2.13;;;1.33;;
25153;SDS011;47555;51.038;6.280;2023-07-30T12:11:02;6.38;;;1.42;;
25153;SDS011;47555;51.038;6.280;2023-07-30T12:13:28;5.68;;;1.98;;
25153;SDS011;47555;51.038;6.280;2023-07-30T12:15:54;3.75;;;1.42;;
25153;SDS011;47555;51.038;6.280;2023-07-30T12:18:21;6.57;;;1.65;;
25153;SDS011;47555;51.038;6.280;2023-07-30T12:20:48;5.80;;;1.58;;
25153;SDS011;47555;51.038;6.280;2023-07-30T12:23:15;5.63;;;1.83;;
25153;SDS011;47555;51.038;6.280;2023-07-30T12:25:41;5.70;;;1.75;;
25153;SDS011;47555;51.038;6.280;2023-07-30T12:28:07;6.10;;;1.83;;
25153;SDS011;47555;51.038;6.280;2023-07-30T12:30:33;4.13;;;1.63;;
25153;SDS011;47555;51.038;6.280;2023-07-30T12:33:01;3.92;;;1.40;;
25153;SDS011;47555;51.038;6.280;2023-07-30T12:35:27;7.32;;;1.92;;
25153;SDS011;47555;51.038;6.280;2023-07-30T12:37:53;4.57;;;1.35;;
25153;SDS011;47555;51.038;6.280;2023-07-30T12:40:19;3.90;;;1.98;;
25153;SDS011;47555;51.038;6.280;2023-07-30T12:42:45;2.63;;;1.30;;
25153;SDS011;47555;51.038;6.280;2023-07-30T12:45:11;4.07;;;1.50;;
25153;SDS011;47555;51.038;6.280;2023-07-30T12:47:37;4.10;;;1.50;;
25153;SDS011;47555;51.038;6.280;2023-07-30T12:50:04;7.60;;;1.60;;
25153;SDS011;47555;51.038;6.280;2023-07-30T12:52:31;4.75;;;1.48;;
25153;SDS011;47555;51.038;6.280;2023-07-30T12:54:58;3.88;;;1.40;;
25153;SDS011;47555;51.038;6.280;2023-07-30T12:57:23;5.10;;;1.42;;
25153;SDS011;47555;51.038;6.280;2023-07-30T12:59:49;8.80;;;1.52;;
25153;SDS011;47555;51.038;6.280;2023-07-30T13:02:15;6.28;;;1.55;;
25153;SDS011;47555;51.038;6.280;2023-07-30T13:04:41;3.78;;;1.40;;
25153;SDS011;47555;51.038;6.280;2023-07-30T13:07:07;6.78;;;1.40;;
25153;SDS011;47555;51.038;6.280;2023-07-30T13:09:33;4.38;;;1.45;;
25153;SDS011;47555;51.038;6.280;2023-07-30T13:11:59;4.47;;;1.60;;
25153;SDS011;47555;51.038;6.280;2023-07-30T13:14:25;3.13;;;1.45;;
25153;SDS011;47555;51.038;6.280;2023-07-30T13:16:51;5.20;;;1.70;;
25153;SDS011;47555;51.038;6.280;2023-07-30T13:19:17;5.28;;;1.40;;
25153;SDS011;47555;51.038;6.280;2023-07-30T13:21:43;5.15;;;1.50;;
25153;SDS011;47555;51.038;6.280;2023-07-30T13:24:09;4.93;;;1.70;;
25153;SDS011;47555;51.038;6.280;2023-07-30T13:26:35;6.53;;;1.42;;
25153;SDS011;47555;51.038;6.280;2023-07-30T13:29:01;5.00;;;1.50;;
25153;SDS011;47555;51.038;6.280;2023-07-30T13:31:28;5.00;;;1.70;;
25153;SDS011;47555;51.038;6.280;2023-07-30T13:33:55;5.40;;;1.73;;
25153;SDS011;47555;51.038;6.280;2023-07-30T13:36:21;7.22;;;1.55;;
25153;SDS011;47555;51.038;6.280;2023-07-30T13:38:47;3.95;;;1.42;;
25153;SDS011;47555;51.038;6.280;2023-07-30T13:41:13;6.47;;;1.77;;
25153;SDS011;47555;51.038;6.280;2023-07-30T13:43:39;4.90;;;1.50;;
25153;SDS011;47555;51.038;6.280;2023-07-30T13:46:05;4.72;;;1.20;;
25153;SDS011;47555;51.038;6.280;2023-07-30T13:48:31;6.35;;;1.30;;
25153;SDS011;47555;51.038;6.280;2023-07-30T13:50:57;4.60;;;1.40;;
25153;SDS011;47555;51.038;6.280;2023-07-30T13:53:23;5.78;;;1.63;;
25153;SDS011;47555;51.038;6.280;2023-07-30T13:55:49;4.90;;;1.80;;
25153;SDS011;47555;51.038;6.280;2023-07-30T13:58:15;5.28;;;1.58;;
25153;SDS011;47555;51.038;6.280;2023-07-30T14:00:41;5.25;;;1.85;;
25153;SDS011;47555;51.038;6.280;2023-07-30T14:03:07;5.38;;;1.50;;
25153;SDS011;47555;51.038;6.280;2023-07-30T14:05:34;4.68;;;1.40;;
25153;SDS011;47555;51.038;6.280;2023-07-30T14:08:00;4.50;;;1.42;;
25153;SDS011;47555;51.038;6.280;2023-07-30T14:10:26;6.30;;;1.42;;
25153;SDS011;47555;51.038;6.280;2023-07-30T14:12:52;3.95;;;1.20;;
25153;SDS011;47555;51.038;6.280;2023-07-30T14:15:18;4.78;;;1.20;;
25153;SDS011;47555;51.038;6.280;2023-07-30T14:17:44;5.78;;;1.50;;
25153;SDS011;47555;51.038;6.280;2023-07-30T14:20:10;3.17;;;1.17;;
25153;SDS011;47555;51.038;6.280;2023-07-30T14:22:36;5.28;;;1.48;;
25153;SDS011;47555;51.038;6.280;2023-07-30T14:25:02;3.22;;;1.45;;
25153;SDS011;47555;51.038;6.280;2023-07-30T14:27:28;2.80;;;1.33;;
25153;SDS011;47555;51.038;6.280;2023-07-30T14:29:55;2.28;;;1.50;;
25153;SDS011;47555;51.038;6.280;2023-07-30T14:32:21;4.38;;;1.55;;
25153;SDS011;47555;51.038;6.280;2023-07-30T14:34:47;3.63;;;1.30;;
25153;SDS011;47555;51.038;6.280;2023-07-30T14:37:13;5.03;;;1.70;;
25153;SDS011;47555;51.038;6.280;2023-07-30T14:39:41;4.72;;;1.40;;
25153;SDS011;47555;51.038;6.280;2023-07-30T14:42:07;4.13;;;1.50;;
25153;SDS011;47555;51.038;6.280;2023-07-30T14:44:34;5.90;;;1.65;;
25153;SDS011;47555;51.038;6.280;2023-07-30T14:47:00;6.10;;;1.40;;
25153;SDS011;47555;51.038;6.280;2023-07-30T14:49:28;3.30;;;1.38;;
25153;SDS011;47555;51.038;6.280;2023-07-30T14:51:54;6.03;;;1.48;;